createdAt,value
2018-05-17T00:04:39.887Z,20.60
2018-05-17T00:09:43.002Z,24.90
2018-05-17T00:14:46.132Z,25.60
2018-05-17T00:19:50.744Z,18.43
2018-05-17T00:24:54.601Z,23.03
2018-05-17T00:29:58.083Z,25.07
2018-05-17T00:35:01.993Z,25.57
2018-05-17T00:40:06.600Z,22.67
2018-05-17T00:45:10.435Z,27.77
2018-05-17T00:50:15.618Z,25.87
2018-05-17T00:55:18.843Z,26.90
2018-05-17T01:00:22.919Z,22.52
2018-05-17T01:05:27.383Z,26.63
2018-05-17T01:10:30.871Z,23.47
2018-05-17T01:15:34.366Z,20.95
2018-05-17T01:20:38.985Z,23.17
2018-05-17T01:25:42.078Z,19.13
2018-05-17T01:30:45.199Z,25.53
2018-05-17T01:35:48.287Z,19.70
2018-05-17T01:40:52.143Z,24.87
2018-05-17T01:45:55.239Z,21.67
2018-05-17T01:51:00.379Z,23.10
2018-05-17T01:56:03.866Z,28.30
2018-05-17T02:01:07.717Z,33.23
2018-05-17T02:06:11.591Z,30.60
2018-05-17T02:11:14.679Z,23.87
2018-05-17T02:16:18.914Z,18.83
2018-05-17T02:21:22.009Z,22.20
2018-05-17T02:26:25.107Z,26.00
2018-05-17T02:31:28.202Z,24.57
2018-05-17T02:36:31.318Z,23.37
2018-05-17T02:41:35.190Z,23.10
2018-05-17T02:46:38.283Z,25.70
2018-05-17T02:51:41.630Z,23.30
2018-05-17T02:56:45.515Z,23.10
2018-05-17T03:01:49.379Z,23.93
2018-05-17T03:06:52.850Z,26.67
2018-05-17T03:11:56.616Z,25.70
2018-05-17T03:16:59.707Z,23.27
2018-05-17T03:22:04.142Z,21.83
2018-05-17T03:27:07.226Z,24.20
2018-05-17T03:32:11.079Z,23.27
2018-05-17T03:37:15.299Z,27.13
2018-05-17T03:42:18.401Z,26.17
2018-05-17T03:47:21.883Z,31.43
2018-05-17T03:52:25.367Z,27.60
2018-05-17T03:57:29.586Z,27.77
2018-05-17T04:02:51.283Z,29.00
2018-05-17T04:07:54.774Z,32.13
2018-05-17T04:12:58.629Z,26.57
2018-05-17T04:18:01.727Z,27.37
2018-05-17T04:23:04.882Z,30.20
2018-05-17T04:28:07.978Z,32.17
2018-05-17T04:33:11.832Z,27.57
2018-05-17T04:38:15.344Z,26.80
2018-05-17T04:43:19.203Z,27.50
2018-05-17T04:48:23.431Z,22.23
2018-05-17T04:53:28.264Z,26.37
2018-05-17T04:58:31.369Z,29.50
2018-05-17T05:03:34.677Z,30.07
2018-05-17T05:08:38.534Z,31.50
2018-05-17T05:13:42.384Z,28.77
2018-05-17T05:18:45.470Z,32.63
2018-05-17T05:23:49.319Z,24.30
2018-05-17T05:28:52.411Z,28.47
2018-05-17T05:33:56.255Z,27.90
2018-05-17T05:39:00.850Z,28.13
2018-05-17T05:44:04.363Z,32.05
2018-05-17T05:49:08.263Z,27.87
2018-05-17T05:54:11.823Z,24.97
2018-05-17T05:59:15.306Z,30.00
2018-05-17T06:04:19.182Z,23.93
2018-05-17T06:09:22.278Z,25.60
2018-05-17T06:14:26.886Z,24.90
2018-05-17T06:19:30.379Z,31.10
2018-05-17T06:24:34.994Z,37.27
2018-05-17T06:29:38.576Z,39.88
2018-05-17T06:34:42.427Z,29.93
2018-05-17T06:39:45.545Z,36.80
2018-05-17T06:44:50.255Z,35.63
2018-05-17T06:49:54.093Z,43.83
2018-05-17T06:54:57.191Z,43.58
2018-05-17T07:00:01.634Z,47.20
2018-05-17T07:05:05.499Z,40.40
2018-05-17T07:10:08.591Z,45.07
2018-05-17T07:15:11.686Z,43.80
2018-05-17T07:20:15.548Z,43.03
2018-05-17T07:25:18.641Z,38.07
2018-05-17T07:30:22.878Z,45.87
2018-05-17T07:35:25.963Z,44.47
2018-05-17T07:40:29.814Z,38.67
2018-05-17T07:45:32.926Z,43.90
2018-05-17T07:50:36.023Z,45.00
2018-05-17T07:55:39.954Z,42.40
2018-05-17T08:00:43.758Z,41.80
2018-05-17T08:05:47.631Z,48.57
2018-05-17T08:10:51.141Z,44.27
2018-05-17T08:15:54.226Z,47.53
2018-05-17T08:20:57.723Z,46.90
2018-05-17T08:26:00.876Z,50.40
2018-05-17T08:31:05.039Z,49.73
2018-05-17T08:36:08.928Z,43.50
2018-05-17T08:41:13.346Z,40.60
2018-05-17T08:46:18.316Z,43.50
2018-05-17T08:51:21.397Z,40.73
2018-05-17T08:56:24.503Z,39.33
2018-05-17T09:01:28.366Z,37.17
2018-05-17T09:06:32.229Z,36.50
2018-05-17T09:11:36.673Z,34.33
2018-05-17T09:16:39.957Z,33.47
2018-05-17T09:21:43.045Z,32.47
2018-05-17T09:26:46.907Z,24.80
2018-05-17T09:31:51.389Z,24.47
2018-05-17T09:36:54.498Z,28.97
2018-05-17T09:41:59.106Z,29.30
2018-05-17T09:47:02.229Z,30.57
2018-05-17T09:52:06.106Z,31.20
2018-05-17T09:57:09.193Z,29.00
2018-05-17T10:02:12.293Z,19.27
2018-05-17T10:07:15.399Z,24.37
2018-05-17T10:12:19.264Z,26.73
2018-05-17T10:17:22.362Z,21.90
2018-05-17T10:22:25.466Z,27.50
2018-05-17T10:27:29.694Z,19.33
2018-05-17T10:32:33.966Z,26.63
2018-05-17T10:37:40.164Z,27.60
2018-05-17T10:42:44.597Z,30.93
2018-05-17T10:47:49.217Z,28.73
2018-05-17T10:52:53.657Z,26.83
2018-05-17T10:57:57.154Z,27.20
2018-05-17T11:03:01.762Z,24.50
2018-05-17T11:08:05.162Z,20.60
2018-05-17T11:13:09.037Z,26.13
2018-05-17T11:18:12.138Z,20.63
2018-05-17T11:23:15.227Z,18.13
2018-05-17T11:28:18.327Z,25.20
2018-05-17T11:33:22.579Z,20.90
2018-05-17T11:38:25.689Z,20.60
2018-05-17T11:43:28.787Z,23.33
2018-05-17T11:48:31.883Z,23.10
2018-05-17T11:53:34.981Z,22.33
2018-05-17T11:58:38.841Z,20.93
2018-05-17T12:03:41.918Z,20.20
2018-05-17T12:08:46.153Z,20.00
2018-05-17T12:13:49.242Z,15.32
2018-05-17T12:18:52.330Z,21.47
2018-05-17T12:23:57.591Z,25.77
2018-05-17T12:29:00.694Z,16.73
2018-05-17T12:34:04.568Z,19.87
2018-05-17T12:39:07.654Z,15.57
2018-05-17T12:44:11.509Z,17.93
2018-05-17T12:49:14.626Z,18.63
2018-05-17T12:54:17.736Z,19.83
2018-05-17T12:59:20.830Z,21.77
2018-05-17T13:04:23.914Z,17.43
2018-05-17T13:09:27.007Z,14.63
2018-05-17T13:14:31.441Z,17.67
2018-05-17T13:19:35.350Z,20.40
2018-05-17T13:24:39.599Z,19.23
2018-05-17T13:29:43.086Z,16.53
2018-05-17T13:34:47.305Z,16.63
2018-05-17T13:39:50.394Z,19.30
2018-05-17T13:44:54.254Z,18.30
2018-05-17T13:49:57.746Z,17.57
2018-05-17T13:55:01.600Z,17.87
2018-05-17T14:00:04.690Z,17.30
2018-05-17T14:05:07.778Z,17.37
2018-05-17T14:10:10.874Z,16.43
2018-05-17T14:15:13.969Z,18.40
2018-05-17T14:20:17.057Z,14.50
2018-05-17T14:25:20.911Z,20.57
2018-05-17T14:30:24.010Z,18.23
2018-05-17T14:35:27.122Z,17.43
2018-05-17T14:40:30.611Z,15.77
2018-05-17T14:45:34.487Z,16.27
2018-05-17T14:50:38.942Z,15.90
2018-05-17T14:55:43.635Z,16.70
2018-05-17T15:00:46.647Z,18.00
2018-05-17T15:05:49.723Z,14.00
2018-05-17T15:10:54.160Z,20.97
2018-05-17T15:15:58.610Z,16.23
2018-05-17T15:21:02.091Z,18.23
2018-05-17T15:26:06.013Z,16.37
2018-05-17T15:31:10.246Z,21.73
2018-05-17T15:36:13.397Z,17.37
2018-05-17T15:41:16.423Z,19.80
2018-05-17T15:46:19.510Z,12.43
2018-05-17T15:51:23.957Z,17.10
2018-05-17T15:56:27.812Z,14.43
2018-05-17T16:01:30.913Z,12.33
2018-05-17T16:06:34.756Z,13.57
2018-05-17T16:11:39.194Z,11.33
2018-05-17T16:16:43.649Z,16.65
2018-05-17T16:21:46.739Z,12.77
2018-05-17T16:26:49.887Z,14.33
2018-05-17T16:31:54.114Z,15.47
2018-05-17T16:36:59.349Z,14.90
2018-05-17T16:42:03.944Z,13.60
2018-05-17T16:47:08.369Z,13.53
2018-05-17T16:52:12.218Z,12.70
2018-05-17T16:57:15.314Z,14.33
2018-05-17T17:02:19.755Z,16.03
2018-05-17T17:07:23.257Z,15.50
2018-05-17T17:12:27.481Z,18.03
2018-05-17T17:17:30.958Z,13.93
2018-05-17T17:22:34.802Z,12.17
2018-05-17T17:27:39.784Z,13.68
2018-05-17T17:32:43.998Z,13.13
2018-05-17T17:37:47.079Z,14.33
2018-05-17T17:42:50.174Z,19.17
2018-05-17T17:47:53.264Z,17.15
2018-05-17T17:52:56.358Z,13.85
2018-05-17T17:58:00.813Z,15.47
2018-05-17T18:03:04.662Z,18.87
2018-05-17T18:08:07.762Z,21.43
2018-05-17T18:13:11.623Z,20.40
2018-05-17T18:18:14.715Z,13.23
2018-05-17T18:23:18.955Z,14.83
2018-05-17T18:28:23.389Z,19.27
2018-05-17T18:33:27.253Z,16.67
2018-05-17T18:38:31.105Z,15.70
2018-05-17T18:43:34.193Z,18.57
2018-05-17T18:48:38.634Z,16.53
2018-05-17T18:53:42.486Z,19.00
2018-05-17T18:58:46.352Z,18.80
2018-05-17T19:03:49.461Z,18.27
2018-05-17T19:08:52.555Z,16.30
2018-05-17T19:13:56.406Z,17.20
2018-05-17T19:18:59.501Z,23.70
2018-05-17T19:24:02.594Z,17.27
2018-05-17T19:29:06.082Z,14.70
2018-05-17T19:34:10.512Z,19.17
2018-05-17T19:39:24.059Z,12.00
2018-05-17T19:44:28.514Z,22.47
2018-05-17T19:49:33.219Z,16.23
2018-05-17T19:54:37.155Z,19.87
2018-05-17T19:59:51.562Z,17.52
2018-05-17T20:04:54.724Z,18.07
2018-05-17T20:09:58.630Z,17.00
2018-05-17T20:15:01.874Z,17.40
2018-05-17T20:20:05.807Z,20.75
2018-05-17T20:25:10.402Z,14.73
2018-05-17T20:30:14.700Z,21.57
2018-05-17T20:35:17.738Z,22.85
2018-05-17T20:40:21.254Z,17.50
2018-05-17T20:45:24.354Z,20.37
2018-05-17T20:50:28.889Z,20.60
2018-05-17T20:55:33.603Z,25.87
2018-05-17T21:00:37.536Z,15.53
2018-05-17T21:05:42.062Z,20.77
2018-05-17T21:10:45.544Z,22.07
2018-05-17T21:15:48.730Z,18.80
2018-05-17T21:20:51.977Z,21.57
2018-05-17T21:25:55.204Z,19.93
2018-05-17T21:30:59.507Z,16.87
2018-05-17T21:36:02.759Z,27.47
2018-05-17T21:41:05.959Z,23.33
2018-05-17T21:46:10.903Z,17.60
2018-05-17T21:51:14.110Z,24.23
2018-05-17T21:56:17.661Z,17.90
2018-05-17T22:01:20.959Z,19.43
2018-05-17T22:06:25.416Z,19.57
2018-05-17T22:11:30.487Z,16.00
2018-05-17T22:16:34.978Z,24.43
2018-05-17T22:21:39.283Z,20.07
2018-05-17T22:26:43.906Z,18.13
2018-05-17T22:31:47.031Z,29.30
2018-05-17T22:36:50.150Z,23.07
2018-05-17T22:41:53.666Z,21.73
2018-05-17T22:46:56.801Z,21.63
2018-05-17T22:52:00.384Z,22.13
2018-05-17T22:57:13.191Z,21.73
2018-05-17T23:02:16.294Z,18.67
2018-05-17T23:07:19.386Z,19.73
2018-05-17T23:12:22.486Z,21.40
2018-05-17T23:17:26.342Z,18.90
2018-05-17T23:22:37.450Z,23.97
2018-05-17T23:27:42.930Z,21.53
2018-05-17T23:32:46.406Z,18.03
2018-05-17T23:37:49.506Z,22.27
2018-05-17T23:42:52.602Z,25.05
2018-05-17T23:47:56.517Z,23.62
2018-05-17T23:52:59.716Z,16.17
2018-05-17T23:58:03.287Z,21.77
